createdAt,value
2023-03-27T00:00:42.574Z,4.08
2023-03-27T00:03:10.981Z,4.21
2023-03-27T00:05:37.660Z,4.33
2023-03-27T00:08:04.986Z,3.11
2023-03-27T00:10:32.151Z,3.46
2023-03-27T00:12:59.148Z,3.57
2023-03-27T00:15:25.908Z,3.44
2023-03-27T00:17:52.813Z,3.40
2023-03-27T00:20:23.345Z,3.32
2023-03-27T00:22:55.361Z,3.57
2023-03-27T00:25:29.130Z,3.29
2023-03-27T00:27:59.033Z,3.39
2023-03-27T00:30:26.430Z,3.64
2023-03-27T00:32:55.984Z,3.65
2023-03-27T00:35:23.620Z,3.61
2023-03-27T00:37:50.656Z,3.43
2023-03-27T00:40:20.414Z,2.82
2023-03-27T00:42:48.485Z,2.88
2023-03-27T00:45:28.796Z,3.18
2023-03-27T00:47:58.202Z,3.02
2023-03-27T00:50:26.958Z,3.30
2023-03-27T00:52:57.091Z,3.10
2023-03-27T00:55:23.750Z,3.42
2023-03-27T00:57:52.911Z,3.19
2023-03-27T01:00:20.114Z,3.28
2023-03-27T01:02:47.841Z,3.10
2023-03-27T01:05:15.593Z,3.08
2023-03-27T01:08:01.329Z,2.92
2023-03-27T01:10:53.474Z,2.86
2023-03-27T01:13:50.618Z,2.79
2023-03-27T01:16:55.741Z,2.70
2023-03-27T01:19:29.188Z,2.54
2023-03-27T01:21:58.714Z,2.64
2023-03-27T01:24:43.689Z,2.81
2023-03-27T01:27:37.840Z,3.31
2023-03-27T01:30:12.796Z,3.34
2023-03-27T01:32:42.483Z,2.98
2023-03-27T01:35:18.063Z,3.19
2023-03-27T01:38:14.777Z,3.25
2023-03-27T01:41:26.105Z,3.67
2023-03-27T01:44:15.507Z,3.49
2023-03-27T01:46:57.705Z,3.68
2023-03-27T01:49:40.103Z,3.26
2023-03-27T01:52:22.460Z,3.44
2023-03-27T01:54:55.788Z,2.99
2023-03-27T01:57:25.408Z,2.75
2023-03-27T02:00:18.643Z,2.68
2023-03-27T02:02:48.457Z,2.73
2023-03-27T02:05:40.417Z,3.06
2023-03-27T02:08:15.813Z,2.61
2023-03-27T02:10:43.793Z,2.69
2023-03-27T02:13:18.396Z,2.78
2023-03-27T02:15:45.016Z,2.66
2023-03-27T02:18:12.946Z,3.06
2023-03-27T02:20:40.201Z,2.58
2023-03-27T02:23:07.770Z,2.63
2023-03-27T02:25:39.808Z,2.68
2023-03-27T02:28:22.820Z,2.47
2023-03-27T02:31:10.911Z,2.70
2023-03-27T02:34:00.924Z,1.74
2023-03-27T02:36:49.152Z,2.18
2023-03-27T02:39:34.167Z,2.40
2023-03-27T02:42:21.269Z,2.72
2023-03-27T02:45:13.916Z,2.47
2023-03-27T02:48:08.407Z,2.55
2023-03-27T02:50:53.837Z,2.70
2023-03-27T02:53:21.942Z,2.45
2023-03-27T02:55:51.717Z,2.26
2023-03-27T02:58:21.952Z,2.46
2023-03-27T03:00:49.103Z,2.52
2023-03-27T03:03:53.966Z,2.44
2023-03-27T03:06:21.293Z,2.67
2023-03-27T03:08:48.617Z,2.33
2023-03-27T03:11:15.829Z,2.26
2023-03-27T03:13:42.487Z,1.60
2023-03-27T03:16:10.129Z,1.67
2023-03-27T03:18:37.004Z,1.40
2023-03-27T03:21:04.836Z,1.85
2023-03-27T03:23:31.998Z,1.54
2023-03-27T03:25:58.774Z,1.82
2023-03-27T03:28:28.446Z,1.54
2023-03-27T03:30:55.609Z,1.57
2023-03-27T03:33:22.544Z,1.54
2023-03-27T03:35:50.301Z,1.73
2023-03-27T03:38:25.108Z,1.94
2023-03-27T03:40:53.614Z,1.43
2023-03-27T03:43:21.921Z,1.71
2023-03-27T03:45:48.976Z,1.41
2023-03-27T03:48:16.336Z,0.88
2023-03-27T03:50:44.366Z,1.18
2023-03-27T03:53:11.580Z,1.24
2023-03-27T03:55:38.163Z,1.14
2023-03-27T03:58:05.006Z,1.23
2023-03-27T04:00:34.602Z,1.29
2023-03-27T04:03:01.622Z,1.48
2023-03-27T04:05:28.233Z,1.31
2023-03-27T04:07:54.979Z,1.11
2023-03-27T04:10:21.676Z,0.74
2023-03-27T04:12:49.240Z,0.27
2023-03-27T04:15:16.570Z,0.83
2023-03-27T04:17:43.567Z,0.99
2023-03-27T04:20:12.834Z,0.98
2023-03-27T04:22:46.462Z,0.79
2023-03-27T04:25:14.192Z,0.55
2023-03-27T04:27:41.329Z,0.38
2023-03-27T04:30:10.782Z,0.73
2023-03-27T04:32:37.490Z,1.14
2023-03-27T04:35:04.851Z,1.19
2023-03-27T04:37:31.521Z,1.28
2023-03-27T04:39:58.589Z,1.47
2023-03-27T04:42:25.372Z,1.72
2023-03-27T04:44:53.090Z,1.72
2023-03-27T04:47:20.513Z,1.76
2023-03-27T04:49:50.817Z,1.98
2023-03-27T04:52:18.124Z,1.20
2023-03-27T04:54:45.014Z,0.79
2023-03-27T04:57:11.996Z,0.75
2023-03-27T04:59:38.659Z,1.02
2023-03-27T05:02:05.624Z,1.30
2023-03-27T05:05:36.046Z,1.25
2023-03-27T05:08:02.921Z,1.04
2023-03-27T05:10:29.679Z,0.97
2023-03-27T05:12:58.385Z,1.21
2023-03-27T05:15:25.686Z,1.41
2023-03-27T05:17:55.939Z,1.59
2023-03-27T05:20:22.705Z,1.61
2023-03-27T05:22:49.623Z,1.82
2023-03-27T05:25:16.298Z,2.33
2023-03-27T05:27:47.219Z,2.36
2023-03-27T05:30:16.092Z,2.48
2023-03-27T05:32:52.138Z,2.49
2023-03-27T05:35:20.614Z,2.79
2023-03-27T05:37:48.158Z,2.81
2023-03-27T05:40:15.552Z,2.81
2023-03-27T05:42:46.018Z,3.17
2023-03-27T05:45:13.050Z,3.35
2023-03-27T05:47:53.317Z,3.59
2023-03-27T05:50:21.388Z,3.78
2023-03-27T05:52:48.025Z,4.22
2023-03-27T05:55:17.768Z,4.04
2023-03-27T05:57:44.450Z,4.12
2023-03-27T06:00:13.980Z,4.06
2023-03-27T06:02:43.987Z,4.10
2023-03-27T06:05:13.419Z,4.18
2023-03-27T06:07:43.021Z,4.26
2023-03-27T06:10:13.803Z,4.54
2023-03-27T06:12:41.605Z,4.78
2023-03-27T06:15:09.411Z,5.05
2023-03-27T06:17:38.044Z,5.51
2023-03-27T06:20:15.446Z,5.64
2023-03-27T06:22:46.880Z,6.07
2023-03-27T06:25:14.118Z,6.57
2023-03-27T06:27:45.426Z,6.95
2023-03-27T06:30:13.271Z,7.53
2023-03-27T06:32:47.631Z,7.54
2023-03-27T06:35:14.816Z,8.04
2023-03-27T06:37:42.420Z,8.29
2023-03-27T06:40:10.275Z,8.57
2023-03-27T06:42:37.326Z,8.65
2023-03-27T06:45:05.570Z,9.01
2023-03-27T06:47:36.324Z,8.98
2023-03-27T06:50:07.571Z,9.22
2023-03-27T06:52:34.268Z,9.45
2023-03-27T06:55:00.905Z,9.44
2023-03-27T06:57:27.527Z,9.41
2023-03-27T06:59:54.132Z,9.36
2023-03-27T07:02:20.741Z,9.57
2023-03-27T07:04:57.674Z,9.76
2023-03-27T07:07:24.707Z,9.33
2023-03-27T07:09:53.694Z,9.53
2023-03-27T07:12:20.289Z,9.95
2023-03-27T07:14:46.955Z,10.09
2023-03-27T07:17:13.666Z,9.78
2023-03-27T07:19:40.393Z,9.56
2023-03-27T07:22:06.978Z,9.68
2023-03-27T07:24:33.960Z,9.89
2023-03-27T07:27:00.591Z,9.93
2023-03-27T07:29:27.220Z,9.72
2023-03-27T07:31:58.449Z,9.91
2023-03-27T07:34:27.149Z,10.12
2023-03-27T07:36:53.821Z,10.17
2023-03-27T07:39:20.617Z,10.17
2023-03-27T07:41:47.266Z,10.52
2023-03-27T07:44:13.848Z,10.57
2023-03-27T07:46:41.279Z,10.30
2023-03-27T07:49:08.759Z,10.52
2023-03-27T07:51:35.545Z,10.66
2023-03-27T07:54:04.446Z,10.74
2023-03-27T07:56:34.931Z,10.66
2023-03-27T07:59:01.673Z,11.05
2023-03-27T08:01:28.591Z,11.20
2023-03-27T08:03:55.665Z,11.34
2023-03-27T08:06:22.399Z,11.45
2023-03-27T08:08:50.927Z,11.83
2023-03-27T08:11:29.699Z,12.02
2023-03-27T08:13:57.245Z,12.00
2023-03-27T08:16:27.850Z,12.18
2023-03-27T08:18:54.730Z,11.98
2023-03-27T08:21:23.385Z,11.96
2023-03-27T08:23:50.041Z,12.27
2023-03-27T08:26:16.626Z,12.56
2023-03-27T08:28:43.657Z,12.88
2023-03-27T08:31:13.134Z,12.85
2023-03-27T08:33:40.038Z,13.04
2023-03-27T08:36:10.281Z,13.16
2023-03-27T08:38:39.565Z,13.31
2023-03-27T08:41:06.788Z,13.38
2023-03-27T08:43:39.165Z,14.16
2023-03-27T08:46:17.009Z,14.35
2023-03-27T08:49:05.639Z,14.39
2023-03-27T08:51:34.452Z,14.09
2023-03-27T08:54:08.358Z,13.73
2023-03-27T08:56:34.982Z,13.97
2023-03-27T08:59:01.802Z,13.84
2023-03-27T09:01:29.592Z,13.65
2023-03-27T09:04:01.904Z,13.18
2023-03-27T09:06:52.879Z,12.92
2023-03-27T09:09:38.687Z,12.46
2023-03-27T09:12:18.845Z,12.85
2023-03-27T09:14:48.487Z,12.88
2023-03-27T09:17:21.829Z,12.77
2023-03-27T09:20:08.828Z,13.20
2023-03-27T09:22:40.939Z,13.27
2023-03-27T09:25:24.906Z,13.64
2023-03-27T09:27:51.887Z,14.13
2023-03-27T09:30:26.653Z,14.18
2023-03-27T09:32:56.070Z,14.44
2023-03-27T09:35:23.356Z,13.95
2023-03-27T09:37:54.376Z,14.18
2023-03-27T09:40:44.567Z,14.34
2023-03-27T09:43:20.855Z,14.06
2023-03-27T09:45:49.082Z,13.96
2023-03-27T09:48:36.755Z,14.47
2023-03-27T09:51:05.260Z,14.84
2023-03-27T09:53:32.389Z,14.69
2023-03-27T09:56:05.445Z,14.78
2023-03-27T09:58:43.941Z,14.89
2023-03-27T10:01:34.539Z,14.94
2023-03-27T10:04:01.797Z,14.93
2023-03-27T10:06:29.594Z,14.89
2023-03-27T10:08:57.347Z,14.61
2023-03-27T10:11:27.792Z,14.70
2023-03-27T10:13:54.484Z,14.51
2023-03-27T10:16:21.867Z,14.56
2023-03-27T10:18:53.648Z,14.78
2023-03-27T10:21:38.879Z,14.54
2023-03-27T10:24:07.404Z,13.84
2023-03-27T10:26:35.097Z,14.24
2023-03-27T10:29:13.816Z,14.32
2023-03-27T10:31:40.534Z,14.08
2023-03-27T10:34:08.299Z,13.86
2023-03-27T10:36:36.655Z,13.81
2023-03-27T10:39:11.741Z,13.71
2023-03-27T10:41:38.404Z,13.98
2023-03-27T10:44:07.192Z,13.88
2023-03-27T10:46:38.674Z,13.92
2023-03-27T10:49:30.265Z,14.33
2023-03-27T10:52:50.490Z,14.12
2023-03-27T10:55:24.891Z,14.31
2023-03-27T10:57:53.444Z,14.38
2023-03-27T11:00:41.071Z,14.48
2023-03-27T11:03:48.807Z,13.87
2023-03-27T11:06:16.889Z,13.49
2023-03-27T11:09:16.198Z,13.57
2023-03-27T11:11:46.549Z,13.44
2023-03-27T11:14:39.309Z,13.83
2023-03-27T11:17:06.558Z,13.19
2023-03-27T11:19:48.565Z,12.64
2023-03-27T11:22:23.830Z,11.95
2023-03-27T11:24:56.141Z,11.79
2023-03-27T11:27:32.684Z,11.73
2023-03-27T11:30:08.536Z,11.67
2023-03-27T11:33:07.042Z,11.39
2023-03-27T11:35:39.285Z,11.40
2023-03-27T11:38:17.133Z,11.25
2023-03-27T11:40:45.835Z,11.27
2023-03-27T11:43:12.967Z,11.25
2023-03-27T11:45:58.135Z,11.19
2023-03-27T11:48:33.936Z,11.02
2023-03-27T11:51:10.832Z,10.71
2023-03-27T11:53:46.609Z,10.81
2023-03-27T11:56:39.908Z,10.83
2023-03-27T11:59:28.379Z,10.47
2023-03-27T12:02:25.587Z,10.19
2023-03-27T12:05:05.506Z,9.90
2023-03-27T12:07:47.658Z,9.84
2023-03-27T12:10:31.955Z,9.66
2023-03-27T12:13:02.960Z,9.69
2023-03-27T12:15:39.377Z,9.68
2023-03-27T12:18:54.466Z,9.05
2023-03-27T12:21:43.842Z,8.39
2023-03-27T12:24:58.936Z,7.92
2023-03-27T12:27:44.890Z,7.45
2023-03-27T12:30:17.528Z,7.13
2023-03-27T12:33:38.406Z,7.03
2023-03-27T12:36:06.591Z,6.89
2023-03-27T12:38:37.083Z,6.92
2023-03-27T12:41:23.385Z,6.86
2023-03-27T12:43:57.538Z,6.62
2023-03-27T12:46:24.144Z,6.42
2023-03-27T12:48:51.654Z,6.49
2023-03-27T12:51:19.946Z,6.31
2023-03-27T12:53:48.404Z,6.13
2023-03-27T12:56:18.017Z,5.91
2023-03-27T12:58:45.772Z,5.90
2023-03-27T13:01:24.231Z,5.44
2023-03-27T13:04:14.635Z,5.58
2023-03-27T13:06:51.038Z,5.56
2023-03-27T13:09:47.033Z,5.48
2023-03-27T13:12:26.511Z,6.01
2023-03-27T13:15:02.211Z,6.08
2023-03-27T13:17:49.385Z,6.17
2023-03-27T13:20:24.921Z,6.43
2023-03-27T13:23:18.218Z,6.65
2023-03-27T13:25:47.575Z,6.55
2023-03-27T13:28:25.173Z,6.77
2023-03-27T13:30:56.534Z,6.77
2023-03-27T13:33:24.366Z,6.94
2023-03-27T13:36:06.796Z,7.10
2023-03-27T13:38:52.768Z,7.31
2023-03-27T13:41:44.265Z,7.86
2023-03-27T13:44:48.157Z,6.68
2023-03-27T13:47:36.377Z,6.48
2023-03-27T13:50:35.005Z,6.95
2023-03-27T13:53:22.370Z,7.35
2023-03-27T13:56:23.153Z,7.57
2023-03-27T13:58:52.939Z,7.35
2023-03-27T14:01:42.232Z,7.22
2023-03-27T14:04:18.263Z,7.20
2023-03-27T14:06:59.849Z,7.22
2023-03-27T14:09:53.363Z,7.69
2023-03-27T14:12:35.476Z,7.68
2023-03-27T14:15:06.937Z,7.72
2023-03-27T14:18:11.996Z,8.10
2023-03-27T14:20:45.458Z,8.25
2023-03-27T14:23:23.445Z,8.06
2023-03-27T14:26:19.892Z,7.97
2023-03-27T14:28:59.535Z,7.59
2023-03-27T14:31:26.988Z,7.48
2023-03-27T14:34:30.327Z,7.78
2023-03-27T14:37:22.651Z,7.68
2023-03-27T14:39:59.419Z,7.33
2023-03-27T14:42:32.639Z,7.80
2023-03-27T14:45:33.178Z,8.03
2023-03-27T14:48:05.105Z,8.37
2023-03-27T14:50:31.901Z,8.52
2023-03-27T14:52:58.623Z,8.64
2023-03-27T14:55:29.888Z,8.74
2023-03-27T14:57:58.747Z,8.76
2023-03-27T15:00:25.791Z,8.15
2023-03-27T15:02:53.365Z,8.24
2023-03-27T15:05:22.594Z,8.61
2023-03-27T15:07:50.570Z,8.57
2023-03-27T15:10:20.878Z,8.76
2023-03-27T15:12:47.800Z,9.02
2023-03-27T15:15:39.579Z,9.02
2023-03-27T15:18:11.926Z,8.83
2023-03-27T15:20:38.617Z,8.82
2023-03-27T15:23:19.273Z,8.63
2023-03-27T15:25:56.444Z,8.57
2023-03-27T15:28:38.129Z,8.46
2023-03-27T15:31:05.026Z,8.29
2023-03-27T15:33:37.724Z,8.06
2023-03-27T15:36:06.524Z,7.86
2023-03-27T15:38:34.330Z,7.86
2023-03-27T15:41:27.151Z,7.82
2023-03-27T15:44:09.527Z,7.81
2023-03-27T15:46:49.062Z,7.71
2023-03-27T15:49:20.330Z,7.60
2023-03-27T15:51:46.955Z,7.67
2023-03-27T15:54:27.576Z,7.49
2023-03-27T15:57:10.555Z,7.70
2023-03-27T15:59:52.234Z,7.56
2023-03-27T16:02:19.831Z,7.66
2023-03-27T16:04:53.475Z,7.45
2023-03-27T16:07:43.352Z,7.45
2023-03-27T16:10:10.201Z,7.44
2023-03-27T16:12:39.769Z,7.41
2023-03-27T16:15:08.385Z,7.30
2023-03-27T16:17:41.326Z,7.19
2023-03-27T16:20:12.608Z,6.91
2023-03-27T16:22:39.466Z,6.92
2023-03-27T16:25:08.698Z,6.80
2023-03-27T16:27:42.191Z,6.76
2023-03-27T16:30:10.315Z,6.87
2023-03-27T16:32:37.120Z,7.08
2023-03-27T16:35:04.019Z,7.23
2023-03-27T16:37:30.702Z,7.33
2023-03-27T16:39:58.111Z,7.63
2023-03-27T16:42:26.355Z,7.96
2023-03-27T16:44:53.360Z,7.86
2023-03-27T16:47:20.644Z,7.87
2023-03-27T16:49:56.259Z,7.68
2023-03-27T16:52:27.344Z,7.80
2023-03-27T16:54:54.345Z,7.83
2023-03-27T16:57:21.420Z,7.84
2023-03-27T16:59:48.049Z,7.62
2023-03-27T17:02:14.671Z,7.67
2023-03-27T17:04:43.801Z,7.75
2023-03-27T17:07:10.748Z,7.38
2023-03-27T17:09:37.937Z,7.63
2023-03-27T17:12:04.714Z,7.46
2023-03-27T17:14:31.428Z,7.00
2023-03-27T17:16:58.233Z,6.88
2023-03-27T17:19:24.934Z,7.08
2023-03-27T17:21:51.619Z,7.20
2023-03-27T17:24:19.945Z,7.15
2023-03-27T17:26:46.710Z,7.16
2023-03-27T17:29:13.555Z,7.02
2023-03-27T17:31:40.422Z,7.03
2023-03-27T17:34:07.451Z,7.03
2023-03-27T17:36:41.504Z,7.12
2023-03-27T17:39:11.747Z,6.82
2023-03-27T17:41:38.432Z,6.76
2023-03-27T17:44:07.370Z,6.20
2023-03-27T17:46:34.517Z,5.97
2023-03-27T17:49:01.416Z,6.00
2023-03-27T17:51:28.108Z,6.15
2023-03-27T17:53:54.867Z,6.24
2023-03-27T17:56:21.589Z,6.40
2023-03-27T17:58:48.722Z,6.45
2023-03-27T18:01:17.623Z,6.62
2023-03-27T18:03:44.620Z,6.58
2023-03-27T18:06:11.355Z,6.42
2023-03-27T18:08:37.982Z,6.19
2023-03-27T18:11:09.046Z,6.08
2023-03-27T18:13:35.996Z,6.11
2023-03-27T18:16:06.765Z,6.35
2023-03-27T18:18:34.121Z,6.42
2023-03-27T18:21:01.682Z,6.56
2023-03-27T18:23:28.438Z,6.51
2023-03-27T18:25:55.787Z,6.37
2023-03-27T18:28:23.912Z,6.00
2023-03-27T18:31:00.808Z,5.84
2023-03-27T18:33:28.149Z,5.26
2023-03-27T18:35:56.184Z,4.80
2023-03-27T18:38:24.073Z,4.80
2023-03-27T18:40:50.858Z,5.07
2023-03-27T18:43:17.587Z,4.98
2023-03-27T18:45:44.296Z,5.08
2023-03-27T18:48:11.057Z,4.96
2023-03-27T18:50:37.811Z,4.80
2023-03-27T18:53:04.809Z,4.89
2023-03-27T18:55:32.390Z,4.99
2023-03-27T18:57:59.037Z,5.34
2023-03-27T19:00:26.174Z,5.43
2023-03-27T19:02:52.936Z,5.59
2023-03-27T19:05:19.773Z,5.71
2023-03-27T19:07:46.902Z,5.52
2023-03-27T19:10:14.106Z,5.71
2023-03-27T19:12:40.893Z,5.52
2023-03-27T19:15:19.392Z,5.56
2023-03-27T19:17:49.044Z,5.76
2023-03-27T19:20:15.724Z,5.89
2023-03-27T19:22:42.440Z,6.00
2023-03-27T19:25:09.651Z,5.98
2023-03-27T19:27:38.605Z,6.17
2023-03-27T19:30:07.440Z,6.06
2023-03-27T19:32:34.168Z,5.76
2023-03-27T19:35:01.193Z,5.93
2023-03-27T19:37:29.727Z,6.03
2023-03-27T19:39:56.436Z,6.23
2023-03-27T19:42:23.023Z,6.23
2023-03-27T19:44:49.708Z,6.16
2023-03-27T19:47:16.383Z,6.02
2023-03-27T19:49:43.124Z,5.97
2023-03-27T19:52:09.806Z,6.18
2023-03-27T19:54:36.530Z,6.24
2023-03-27T19:57:03.402Z,6.46
2023-03-27T19:59:31.308Z,6.45
2023-03-27T20:01:58.743Z,6.33
2023-03-27T20:04:25.414Z,6.10
2023-03-27T20:06:52.168Z,5.64
2023-03-27T20:09:19.144Z,5.75
2023-03-27T20:11:46.715Z,5.64
2023-03-27T20:14:13.466Z,5.70
2023-03-27T20:16:40.253Z,5.79
2023-03-27T20:19:07.142Z,5.56
2023-03-27T20:21:37.627Z,5.64
2023-03-27T20:24:05.754Z,5.76
2023-03-27T20:26:39.000Z,5.43
2023-03-27T20:29:07.519Z,5.13
2023-03-27T20:31:34.291Z,5.02
2023-03-27T20:34:01.181Z,5.08
2023-03-27T20:36:28.198Z,5.20
2023-03-27T20:38:56.436Z,4.95
2023-03-27T20:41:23.063Z,5.22
2023-03-27T20:43:50.954Z,5.38
2023-03-27T20:46:18.051Z,5.26
2023-03-27T20:48:53.666Z,5.28
2023-03-27T20:51:24.405Z,5.37
2023-03-27T20:53:56.169Z,5.19
2023-03-27T20:56:23.157Z,5.11
2023-03-27T20:58:49.970Z,4.77
2023-03-27T21:01:19.308Z,5.00
2023-03-27T21:03:49.860Z,4.96
2023-03-27T21:06:18.869Z,4.95
2023-03-27T21:08:46.053Z,4.74
2023-03-27T21:11:13.339Z,4.97
2023-03-27T21:13:40.375Z,4.81
2023-03-27T21:16:07.414Z,4.84
2023-03-27T21:18:34.280Z,4.90
2023-03-27T21:21:01.104Z,4.90
2023-03-27T21:23:27.734Z,4.82
2023-03-27T21:25:55.317Z,4.85
2023-03-27T21:28:22.013Z,4.78
2023-03-27T21:30:48.728Z,4.71
2023-03-27T21:33:16.410Z,4.76
2023-03-27T21:35:45.811Z,4.28
2023-03-27T21:38:13.554Z,4.53
2023-03-27T21:40:40.430Z,4.21
2023-03-27T21:43:08.409Z,4.42
2023-03-27T21:45:35.820Z,4.36
2023-03-27T21:48:02.510Z,4.48
2023-03-27T21:50:29.192Z,4.87
2023-03-27T21:52:55.931Z,4.55
2023-03-27T21:55:22.588Z,4.53
2023-03-27T21:57:49.459Z,4.47
2023-03-27T22:00:16.332Z,4.72
2023-03-27T22:02:43.117Z,4.76
2023-03-27T22:05:10.052Z,4.62
2023-03-27T22:07:36.791Z,4.69
2023-03-27T22:10:06.418Z,4.57
2023-03-27T22:12:36.740Z,4.51
2023-03-27T22:15:03.957Z,4.47
2023-03-27T22:17:30.632Z,4.48
2023-03-27T22:19:57.714Z,4.57
2023-03-27T22:22:24.957Z,4.52
2023-03-27T22:24:51.633Z,4.50
2023-03-27T22:27:18.384Z,4.61
2023-03-27T22:29:45.198Z,4.66
2023-03-27T22:32:11.818Z,5.01
2023-03-27T22:34:38.588Z,4.90
2023-03-27T22:37:06.593Z,4.77
2023-03-27T22:39:33.363Z,4.77
2023-03-27T22:42:00.063Z,4.55
2023-03-27T22:44:26.889Z,4.40
2023-03-27T22:46:53.634Z,4.25
2023-03-27T22:49:20.412Z,4.22
2023-03-27T22:51:47.007Z,4.00
2023-03-27T22:54:13.586Z,3.93
2023-03-27T22:56:40.303Z,4.12
2023-03-27T22:59:07.053Z,3.89
2023-03-27T23:01:33.700Z,3.93
2023-03-27T23:04:00.407Z,4.04
2023-03-27T23:06:27.080Z,4.29
2023-03-27T23:08:53.756Z,3.90
2023-03-27T23:11:20.666Z,3.86
2023-03-27T23:13:47.418Z,3.56
2023-03-27T23:16:14.141Z,3.50
2023-03-27T23:18:40.869Z,3.71
2023-03-27T23:21:09.298Z,3.75
2023-03-27T23:23:36.834Z,3.57
2023-03-27T23:26:04.295Z,3.69
2023-03-27T23:28:32.987Z,3.54
2023-03-27T23:31:21.455Z,3.33
2023-03-27T23:33:48.961Z,3.58
2023-03-27T23:36:17.450Z,3.70
2023-03-27T23:38:44.156Z,4.03
2023-03-27T23:41:14.056Z,4.02
2023-03-27T23:43:40.701Z,3.73
2023-03-27T23:46:13.346Z,3.87
2023-03-27T23:48:40.986Z,3.45
2023-03-27T23:51:08.119Z,3.24
2023-03-27T23:53:36.408Z,3.37
2023-03-27T23:56:03.385Z,3.29
2023-03-27T23:58:32.559Z,2.91
